マヘ島 の空港の天気 - METARとTAF

セーシェル国際空港 ( FSIA / SEZ ) - セーシェル マヘ島
飛行場実況気象(Metar)
観測時間01/29 11:00 SCT (01/29 07:00 UTC)
風向・風速北西 8m/s 瞬間風速15m/s
視程10km以上
天気現象
少しの雲 雲底高度 550m
全天の4割程度の雲 雲底高度 700m
気温29℃
湿度70%
気圧1011hPa
METARFSIA 290700Z 32016G29KT 9999 FEW018CB SCT023 29/23 Q1011 NOSIG
過去の天気等 Google飛行場航空写真 Wunderground天気予報

過去48時間のMETAR

飛行場予報(TAF)
発表時間: 1/29 09:05 SCT (1/29 05:05 UTC)
予報対象時間: 29日10時 SCT ~ 30日10時 SCT
風向・風速西北西 8m/s 瞬間風速 15m/s
視程10km以上
少しの積乱雲 雲底高度 550m
全天の8割程度の雲 雲底高度 670m
29日12時 SCT ~ 29日16時 SCT に一時的に
視程8000m
天気現象雷雨
少しの雲 雲底高度 270m
少しの積乱雲 雲底高度 490m
全天の8割程度の雲 雲底高度 610m
29日22時 SCT ~ 30日5時 SCT に一時的に
視程5000m
天気現象雷雨
少しの雲 雲底高度 240m
少しの積乱雲 雲底高度 460m
全天の8割程度の雲 雲底高度 550m
TAF FSIA 290505Z 2906/3006 30015G30KT 9999 FEW018CB BKN022
TEMPO 2908/2912 8000 TSRA FEW009 FEW016CB BKN020
TEMPO 2918/3001 5000 TSRA FEW008 FEW015CB BKN018